createdAt,value
2023-04-18T00:05:08.488Z,77.88
2023-04-18T00:10:11.824Z,77.94
2023-04-18T00:15:17.945Z,78.06
2023-04-18T00:21:19.923Z,77.90
2023-04-18T00:26:46.941Z,78.15
2023-04-18T00:32:00.563Z,78.08
2023-04-18T00:37:06.479Z,78.25
2023-04-18T00:42:24.845Z,78.21
2023-04-18T00:47:35.902Z,78.35
2023-04-18T00:52:56.224Z,78.63
2023-04-18T00:58:12.542Z,78.68
2023-04-18T01:03:14.963Z,78.43
2023-04-18T01:08:28.498Z,78.57
2023-04-18T01:13:38.081Z,78.61
2023-04-18T01:19:35.660Z,78.79
2023-04-18T01:24:44.702Z,78.77
2023-04-18T01:30:05.011Z,78.73
2023-04-18T01:35:17.839Z,78.87
2023-04-18T01:41:31.435Z,78.92
2023-04-18T01:48:09.275Z,78.95
2023-04-18T01:54:51.689Z,78.88
2023-04-18T02:00:55.393Z,78.97
2023-04-18T02:06:09.455Z,79.01
2023-04-18T02:11:43.388Z,78.83
2023-04-18T02:16:48.813Z,79.02
2023-04-18T02:22:01.541Z,79.06
2023-04-18T02:27:29.327Z,79.21
2023-04-18T02:32:58.707Z,79.13
2023-04-18T02:38:24.089Z,79.27
2023-04-18T02:43:42.192Z,79.30
2023-04-18T02:49:03.004Z,79.27
2023-04-18T02:54:18.970Z,79.31
2023-04-18T03:00:04.508Z,79.14
2023-04-18T03:05:46.905Z,79.25
2023-04-18T03:10:56.278Z,79.26
2023-04-18T03:16:00.214Z,79.32
2023-04-18T03:21:14.332Z,79.37
2023-04-18T03:27:13.816Z,79.37
2023-04-18T03:32:42.120Z,79.64
2023-04-18T03:38:07.041Z,79.68
2023-04-18T03:43:57.890Z,79.76
2023-04-18T03:49:04.911Z,79.70
2023-04-18T03:55:14.175Z,79.60
2023-04-18T04:02:12.260Z,79.66
2023-04-18T04:07:59.641Z,79.68
2023-04-18T04:13:14.191Z,79.48
2023-04-18T04:19:18.519Z,79.41
2023-04-18T04:25:28.964Z,79.49
2023-04-18T04:37:26.380Z,79.25
2023-04-18T04:43:36.630Z,79.15
2023-04-18T04:49:23.044Z,79.29
2023-04-18T04:54:53.833Z,79.25
2023-04-18T05:00:28.138Z,79.06
2023-04-18T05:06:15.104Z,78.98
2023-04-18T05:11:35.722Z,78.96
2023-04-18T05:17:11.224Z,78.75
2023-04-18T05:22:28.268Z,78.70
2023-04-18T05:28:29.979Z,78.67
2023-04-18T05:34:16.393Z,78.65
2023-04-18T05:39:43.693Z,78.33
2023-04-18T05:45:30.454Z,78.05
2023-04-18T05:50:32.700Z,77.58
2023-04-18T05:55:54.650Z,77.38
2023-04-18T06:01:01.616Z,76.85
2023-04-18T06:06:13.077Z,76.12
2023-04-18T06:11:37.764Z,75.69
2023-04-18T06:16:43.457Z,75.51
2023-04-18T06:21:46.540Z,75.31
2023-04-18T06:27:17.476Z,75.15
2023-04-18T06:32:26.788Z,74.85
2023-04-18T06:37:41.877Z,74.38
2023-04-18T06:43:25.051Z,74.36
2023-04-18T06:49:20.738Z,74.17
2023-04-18T06:54:28.073Z,73.63
2023-04-18T06:59:32.253Z,72.95
2023-04-18T07:04:52.916Z,72.54
2023-04-18T07:09:57.698Z,70.12
2023-04-18T07:14:59.373Z,69.22
2023-04-18T07:20:06.556Z,68.84
2023-04-18T07:25:11.923Z,67.55
2023-04-18T07:30:19.673Z,65.52
2023-04-18T07:35:21.849Z,64.71
2023-04-18T07:40:31.703Z,63.27
2023-04-18T07:46:10.186Z,62.32
2023-04-18T07:51:12.242Z,60.77
2023-04-18T07:56:18.727Z,58.56
2023-04-18T08:01:31.945Z,56.03
2023-04-18T08:06:46.987Z,55.19
2023-04-18T08:11:59.668Z,54.72
2023-04-18T08:17:09.781Z,53.80
2023-04-18T08:22:50.002Z,53.40
2023-04-18T08:28:04.382Z,52.18
2023-04-18T08:33:38.283Z,51.96
2023-04-18T08:38:59.203Z,51.59
2023-04-18T08:44:01.259Z,51.10
2023-04-18T08:49:22.187Z,51.01
2023-04-18T08:54:29.890Z,50.06
2023-04-18T08:59:35.103Z,50.85
2023-04-18T09:04:44.265Z,50.36
2023-04-18T09:09:50.956Z,51.40
2023-04-18T09:15:22.442Z,51.10
2023-04-18T09:20:41.746Z,49.74
2023-04-18T09:25:52.771Z,47.95
2023-04-18T09:31:15.026Z,48.64
2023-04-18T09:36:31.768Z,48.01
2023-04-18T09:41:33.811Z,46.34
2023-04-18T09:46:38.302Z,46.03
2023-04-18T09:51:46.499Z,45.65
2023-04-18T09:57:04.839Z,45.50
2023-04-18T10:02:21.541Z,45.03
2023-04-18T10:07:27.610Z,44.95
2023-04-18T10:12:35.968Z,45.27
2023-04-18T10:18:04.390Z,44.86
2023-04-18T10:23:28.047Z,45.78
2023-04-18T10:29:05.217Z,45.55
2023-04-18T10:34:07.513Z,44.11
2023-04-18T10:39:25.563Z,42.60
2023-04-18T10:44:29.775Z,42.89
2023-04-18T10:49:34.679Z,42.69
2023-04-18T10:55:11.570Z,41.61
2023-04-18T11:00:16.291Z,38.76
2023-04-18T11:05:27.358Z,39.06
2023-04-18T11:10:29.500Z,39.55
2023-04-18T11:15:36.233Z,38.94
2023-04-18T11:20:49.125Z,37.48
2023-04-18T11:26:02.540Z,36.90
2023-04-18T11:31:14.410Z,37.63
2023-04-18T11:36:43.502Z,37.31
2023-04-18T11:42:29.647Z,36.38
2023-04-18T11:48:25.217Z,35.56
2023-04-18T11:53:38.446Z,35.77
2023-04-18T11:58:45.592Z,35.99
2023-04-18T12:04:13.955Z,36.56
2023-04-18T12:09:27.683Z,35.12
2023-04-18T12:14:35.193Z,35.61
2023-04-18T12:19:44.982Z,35.85
2023-04-18T12:25:06.851Z,35.30
2023-04-18T12:30:09.852Z,34.76
2023-04-18T12:35:21.476Z,33.48
2023-04-18T12:40:45.630Z,32.87
2023-04-18T12:46:07.721Z,33.28
2023-04-18T12:51:09.868Z,33.88
2023-04-18T12:56:21.304Z,33.72
2023-04-18T13:01:31.689Z,32.19
2023-04-18T13:06:33.876Z,33.58
2023-04-18T13:11:38.953Z,33.83
2023-04-18T13:16:45.699Z,32.48
2023-04-18T13:21:49.482Z,31.52
2023-04-18T13:26:59.258Z,30.47
2023-04-18T13:32:01.081Z,31.79
2023-04-18T13:37:05.934Z,31.82
2023-04-18T13:42:09.884Z,31.43
2023-04-18T13:47:11.691Z,32.43
2023-04-18T13:52:18.171Z,32.60
2023-04-18T13:57:22.785Z,32.95
2023-04-18T14:02:27.246Z,33.47
2023-04-18T14:07:29.076Z,34.13
2023-04-18T14:12:30.832Z,34.46
2023-04-18T14:17:37.991Z,35.09
2023-04-18T14:22:53.233Z,35.73
2023-04-18T14:28:09.986Z,35.82
2023-04-18T14:33:15.196Z,35.40
2023-04-18T14:38:17.194Z,36.53
2023-04-18T14:43:35.871Z,36.57
2023-04-18T14:48:37.705Z,36.56
2023-04-18T14:53:40.380Z,36.38
2023-04-18T14:58:49.996Z,36.30
2023-04-18T15:03:51.867Z,36.88
2023-04-18T15:09:16.780Z,37.01
2023-04-18T15:14:58.213Z,37.76
2023-04-18T15:21:01.904Z,38.51
2023-04-18T15:27:23.215Z,38.47
2023-04-18T15:32:51.657Z,38.85
2023-04-18T15:38:02.337Z,39.22
2023-04-18T15:44:04.300Z,39.69
2023-04-18T15:50:33.675Z,40.25
2023-04-18T15:56:00.947Z,40.91
2023-04-18T16:01:04.993Z,41.35
2023-04-18T16:06:09.219Z,41.67
2023-04-18T16:11:16.473Z,42.45
2023-04-18T16:17:20.795Z,43.17
2023-04-18T16:23:44.755Z,43.31
2023-04-18T16:29:15.386Z,43.87
2023-04-18T16:34:17.240Z,44.55
2023-04-18T16:39:27.590Z,45.36
2023-04-18T16:44:41.376Z,46.71
2023-04-18T16:49:50.825Z,47.91
2023-04-18T16:55:04.552Z,48.60
2023-04-18T17:00:14.797Z,49.67
2023-04-18T17:05:33.385Z,50.70
2023-04-18T17:11:07.932Z,51.83
2023-04-18T17:16:26.973Z,52.37
2023-04-18T17:21:34.574Z,52.97
2023-04-18T17:26:38.324Z,53.35
2023-04-18T17:31:42.418Z,53.89
2023-04-18T17:36:44.366Z,54.48
2023-04-18T17:41:54.312Z,55.13
2023-04-18T17:46:56.143Z,55.82
2023-04-18T17:51:58.422Z,56.32
2023-04-18T17:57:03.398Z,56.98
2023-04-18T18:02:25.009Z,57.41
2023-04-18T18:07:33.314Z,58.05
2023-04-18T18:12:40.502Z,58.35
2023-04-18T18:17:42.818Z,58.51
2023-04-18T18:22:44.469Z,58.46
2023-04-18T18:27:53.978Z,58.33
2023-04-18T18:33:22.787Z,58.03
2023-04-18T18:38:24.637Z,57.54
2023-04-18T18:43:26.569Z,56.96
2023-04-18T18:48:30.985Z,56.98
2023-04-18T18:54:34.526Z,57.01
2023-04-18T18:59:56.309Z,57.26
2023-04-18T19:05:01.286Z,57.57
2023-04-18T19:10:04.753Z,57.91
2023-04-18T19:15:10.195Z,58.13
2023-04-18T19:20:12.011Z,58.67
2023-04-18T19:25:14.146Z,59.15
2023-04-18T19:31:15.646Z,59.80
2023-04-18T19:36:37.511Z,61.05
2023-04-18T19:41:41.100Z,61.80
2023-04-18T19:47:42.513Z,62.33
2023-04-18T19:53:07.422Z,62.98
2023-04-18T19:58:43.291Z,63.31
2023-04-18T20:03:50.394Z,63.52
2023-04-18T20:09:54.267Z,63.77
2023-04-18T20:16:15.474Z,64.03
2023-04-18T20:22:36.823Z,64.24
2023-04-18T20:28:15.794Z,64.55
2023-04-18T20:33:39.291Z,64.46
2023-04-18T20:39:40.598Z,64.66
2023-04-18T20:46:02.638Z,64.78
2023-04-18T20:52:23.872Z,64.83
2023-04-18T20:57:48.161Z,64.85
2023-04-18T21:03:49.894Z,65.04
2023-04-18T21:09:20.040Z,65.28
2023-04-18T21:14:40.117Z,65.31
2023-04-18T21:20:47.657Z,65.38
2023-04-18T21:27:11.379Z,65.56
2023-04-18T21:33:02.369Z,65.54
2023-04-18T21:38:17.198Z,65.65
2023-04-18T21:43:21.720Z,65.78
2023-04-18T21:49:26.155Z,65.93
2023-04-18T21:54:59.230Z,66.13
2023-04-18T22:00:27.718Z,66.37
2023-04-18T22:07:30.752Z,66.45
2023-04-18T22:14:29.867Z,66.57
2023-04-18T22:21:14.871Z,66.74
2023-04-18T22:27:06.910Z,67.10
2023-04-18T22:32:26.301Z,67.35
2023-04-18T22:37:47.183Z,67.53
2023-04-18T22:43:06.477Z,67.49
2023-04-18T22:48:13.310Z,67.69
2023-04-18T22:53:31.928Z,67.77
2023-04-18T22:59:04.941Z,68.07
2023-04-18T23:05:26.617Z,68.47
2023-04-18T23:11:00.182Z,68.86
2023-04-18T23:16:32.349Z,68.93
2023-04-18T23:22:25.911Z,69.23
2023-04-18T23:28:41.606Z,69.27
2023-04-18T23:35:03.388Z,69.58
2023-04-18T23:41:31.036Z,69.73
2023-04-18T23:47:53.487Z,70.04
2023-04-18T23:53:24.259Z,70.06
2023-04-18T23:59:29.111Z,70.12
